createdAt,value
2019-02-27T00:01:11.719Z,99.90
2019-02-27T00:03:40.981Z,99.90
2019-02-27T00:06:10.104Z,99.90
2019-02-27T00:08:39.252Z,99.90
2019-02-27T00:11:12.071Z,99.90
2019-02-27T00:13:39.325Z,99.90
2019-02-27T00:16:10.864Z,99.90
2019-02-27T00:18:39.529Z,99.90
2019-02-27T00:21:11.034Z,99.90
2019-02-27T00:23:39.497Z,99.90
2019-02-27T00:26:09.080Z,99.90
2019-02-27T00:28:38.713Z,99.90
2019-02-27T00:31:11.155Z,99.90
2019-02-27T00:33:38.766Z,99.90
2019-02-27T00:36:12.037Z,99.90
2019-02-27T00:38:38.714Z,99.90
2019-02-27T00:41:12.048Z,99.90
2019-02-27T00:43:38.817Z,99.90
2019-02-27T00:46:07.988Z,99.90
2019-02-27T00:48:36.861Z,99.90
2019-02-27T00:51:06.092Z,99.90
2019-02-27T00:53:35.136Z,99.90
2019-02-27T00:56:04.288Z,99.90
2019-02-27T00:58:33.504Z,99.90
2019-02-27T01:01:02.605Z,99.90
2019-02-27T01:03:31.636Z,99.90
2019-02-27T01:06:00.834Z,99.90
2019-02-27T01:08:49.104Z,99.90
2019-02-27T01:11:18.955Z,99.90
2019-02-27T01:13:48.113Z,99.90
2019-02-27T01:16:17.794Z,99.90
2019-02-27T01:18:46.808Z,99.90
2019-02-27T01:21:19.247Z,99.90
2019-02-27T01:23:46.428Z,99.90
2019-02-27T01:26:15.517Z,99.90
2019-02-27T01:28:45.475Z,99.90
2019-02-27T01:31:14.668Z,99.90
2019-02-27T01:33:43.736Z,99.90
2019-02-27T01:36:12.976Z,99.90
2019-02-27T01:38:42.312Z,99.90
2019-02-27T01:41:11.412Z,99.90
2019-02-27T01:43:40.693Z,99.90
2019-02-27T01:46:10.080Z,99.90
2019-02-27T01:48:42.825Z,99.90
2019-02-27T01:51:09.881Z,99.90
2019-02-27T01:53:40.454Z,99.90
2019-02-27T01:56:11.302Z,99.90
2019-02-27T01:58:43.465Z,99.90
2019-02-27T02:01:11.227Z,99.90
2019-02-27T02:03:40.345Z,99.90
2019-02-27T02:06:09.464Z,99.90
2019-02-27T02:08:38.691Z,99.90
2019-02-27T02:11:07.881Z,99.90
2019-02-27T02:14:10.778Z,99.90
2019-02-27T02:16:50.019Z,99.90
2019-02-27T02:19:48.833Z,99.90
2019-02-27T02:23:08.299Z,99.90
2019-02-27T02:26:24.741Z,99.90
2019-02-27T02:29:47.001Z,99.90
2019-02-27T02:32:42.825Z,99.90
2019-02-27T02:35:27.217Z,99.90
2019-02-27T02:38:17.689Z,99.90
2019-02-27T02:40:56.524Z,99.90
2019-02-27T02:43:55.302Z,99.90
2019-02-27T02:47:21.507Z,99.90
2019-02-27T02:50:17.479Z,99.90
2019-02-27T02:53:08.034Z,99.90
2019-02-27T02:56:09.174Z,99.90
2019-02-27T02:59:24.825Z,99.90
2019-02-27T03:02:23.424Z,99.90
2019-02-27T03:05:23.282Z,99.90
2019-02-27T03:08:19.865Z,99.90
2019-02-27T03:11:19.596Z,99.90
2019-02-27T03:14:17.625Z,99.90
2019-02-27T03:17:21.904Z,99.90
2019-02-27T03:20:37.381Z,99.90
2019-02-27T03:24:05.962Z,99.90
2019-02-27T03:26:59.997Z,99.90
2019-02-27T03:30:06.613Z,99.90
2019-02-27T03:32:53.361Z,99.90
2019-02-27T03:36:04.447Z,99.90
2019-02-27T03:39:20.821Z,99.90
2019-02-27T03:42:26.221Z,99.90
2019-02-27T03:45:15.929Z,99.90
2019-02-27T03:48:27.548Z,99.90
2019-02-27T03:51:35.254Z,99.90
2019-02-27T03:54:20.890Z,99.90
2019-02-27T03:57:03.779Z,99.90
2019-02-27T03:59:57.497Z,99.90
2019-02-27T04:02:42.212Z,99.90
2019-02-27T04:05:42.104Z,99.90
2019-02-27T04:08:43.495Z,99.90
2019-02-27T04:11:07.161Z,99.90
2019-02-27T04:13:36.217Z,99.90
2019-02-27T04:16:05.320Z,99.90
2019-02-27T04:18:32.933Z,99.90
2019-02-27T04:21:02.013Z,99.90
2019-02-27T04:23:30.997Z,99.90
2019-02-27T04:26:05.416Z,99.90
2019-02-27T04:28:30.693Z,99.90
2019-02-27T04:30:59.826Z,99.90
2019-02-27T04:33:28.795Z,99.90
2019-02-27T04:35:57.806Z,99.90
2019-02-27T04:38:27.670Z,99.90
2019-02-27T04:40:57.292Z,99.90
2019-02-27T04:43:26.288Z,99.90
2019-02-27T04:45:55.396Z,99.90
2019-02-27T04:48:24.398Z,99.90
2019-02-27T04:50:53.401Z,99.90
2019-02-27T04:53:22.459Z,99.90
2019-02-27T04:55:51.458Z,99.90
2019-02-27T04:58:20.441Z,99.90
2019-02-27T05:00:49.451Z,99.90
2019-02-27T05:03:18.481Z,99.90
2019-02-27T05:05:47.463Z,99.90
2019-02-27T05:08:16.485Z,99.90
2019-02-27T05:10:45.505Z,99.90
2019-02-27T05:13:14.546Z,99.90
2019-02-27T05:15:43.569Z,99.90
2019-02-27T05:18:12.560Z,99.90
2019-02-27T05:20:44.900Z,99.90
2019-02-27T05:23:12.323Z,99.90
2019-02-27T05:25:41.405Z,99.90
2019-02-27T05:28:10.436Z,99.90
2019-02-27T05:30:39.550Z,99.90
2019-02-27T05:33:08.588Z,99.90
2019-02-27T05:35:37.593Z,99.90
2019-02-27T05:38:06.663Z,99.90
2019-02-27T05:40:35.652Z,99.90
2019-02-27T05:43:04.662Z,99.90
2019-02-27T05:45:33.730Z,99.90
2019-02-27T05:48:02.881Z,99.90
2019-02-27T05:50:34.359Z,99.90
2019-02-27T05:53:03.570Z,99.90
2019-02-27T05:55:32.666Z,99.90
2019-02-27T05:58:01.655Z,99.90
2019-02-27T06:00:30.771Z,99.90
2019-02-27T06:02:59.823Z,99.90
2019-02-27T06:05:28.874Z,99.90
2019-02-27T06:08:02.002Z,99.90
2019-02-27T06:10:28.678Z,99.90
2019-02-27T06:12:57.688Z,99.90
2019-02-27T06:15:28.586Z,99.90
2019-02-27T06:17:57.495Z,99.90
2019-02-27T06:20:26.548Z,99.90
2019-02-27T06:22:55.539Z,99.90
2019-02-27T06:25:24.621Z,99.90
2019-02-27T06:27:53.692Z,99.90
2019-02-27T06:30:22.836Z,99.90
2019-02-27T06:32:51.852Z,99.90
2019-02-27T06:35:20.832Z,99.90
2019-02-27T06:37:50.716Z,99.90
2019-02-27T06:40:20.610Z,99.90
2019-02-27T06:42:53.529Z,99.90
2019-02-27T06:45:20.598Z,99.90
2019-02-27T06:47:49.697Z,99.90
2019-02-27T06:50:18.788Z,99.90
2019-02-27T06:52:48.981Z,99.90
2019-02-27T06:55:18.144Z,99.90
2019-02-27T06:57:47.276Z,99.90
2019-02-27T07:00:18.348Z,99.90
2019-02-27T07:02:47.451Z,99.90
2019-02-27T07:05:16.748Z,99.90
2019-02-27T07:07:45.790Z,99.90
2019-02-27T07:10:19.394Z,99.90
2019-02-27T07:12:46.049Z,99.90
2019-02-27T07:15:18.242Z,99.90
2019-02-27T07:17:47.711Z,99.90
2019-02-27T07:20:16.848Z,99.90
2019-02-27T07:22:46.770Z,99.90
2019-02-27T07:25:16.353Z,99.90
2019-02-27T07:27:45.541Z,99.90
2019-02-27T07:30:16.338Z,99.90
2019-02-27T07:32:45.393Z,99.90
2019-02-27T07:35:14.849Z,99.90
2019-02-27T07:37:47.018Z,99.90
2019-02-27T07:40:15.145Z,99.90
2019-02-27T07:42:44.290Z,99.90
2019-02-27T07:45:15.458Z,99.90
2019-02-27T07:47:44.589Z,99.90
2019-02-27T07:50:14.906Z,99.90
2019-02-27T07:52:44.038Z,99.90
2019-02-27T07:55:21.463Z,99.90
2019-02-27T07:57:44.861Z,99.90
2019-02-27T08:00:16.353Z,99.90
2019-02-27T08:02:45.442Z,99.90
2019-02-27T08:05:14.581Z,99.90
2019-02-27T08:07:48.626Z,99.90
2019-02-27T08:10:16.603Z,99.90
2019-02-27T08:12:46.913Z,99.90
2019-02-27T08:15:17.146Z,99.90
2019-02-27T08:17:46.368Z,99.90
2019-02-27T08:20:20.004Z,99.90
2019-02-27T08:22:46.494Z,99.90
2019-02-27T08:25:15.681Z,99.90
2019-02-27T08:27:44.802Z,99.90
2019-02-27T08:30:18.574Z,99.90
2019-02-27T08:32:47.809Z,99.90
2019-02-27T08:35:16.830Z,99.90
2019-02-27T08:37:45.845Z,99.90
2019-02-27T08:40:15.027Z,99.90
2019-02-27T08:42:44.115Z,99.90
2019-02-27T08:45:19.836Z,99.90
2019-02-27T08:47:44.724Z,99.90
2019-02-27T08:50:15.037Z,99.90
2019-02-27T08:52:44.645Z,99.90
2019-02-27T08:55:19.779Z,99.90
2019-02-27T08:57:45.277Z,99.90
2019-02-27T09:00:19.588Z,99.90
2019-02-27T09:02:48.736Z,99.90
2019-02-27T09:05:20.060Z,99.90
2019-02-27T09:07:50.010Z,99.90
2019-02-27T09:10:19.221Z,99.90
2019-02-27T09:12:49.125Z,99.90
2019-02-27T09:15:20.478Z,99.90
2019-02-27T09:17:49.684Z,99.90
2019-02-27T09:20:19.775Z,99.90
2019-02-27T09:22:50.023Z,99.90
2019-02-27T09:25:23.579Z,99.90
2019-02-27T09:27:49.909Z,99.90
2019-02-27T09:30:19.124Z,99.90
2019-02-27T09:32:48.146Z,99.90
2019-02-27T09:35:17.305Z,99.90
2019-02-27T09:37:48.396Z,99.90
2019-02-27T09:40:18.192Z,99.90
2019-02-27T09:42:50.099Z,99.90
2019-02-27T09:45:21.404Z,99.90
2019-02-27T09:47:50.444Z,99.90
2019-02-27T09:50:25.628Z,99.50
2019-02-27T09:52:54.658Z,98.50
2019-02-27T09:55:23.790Z,97.40
2019-02-27T09:57:52.873Z,97.80
2019-02-27T10:00:35.898Z,97.30
2019-02-27T10:03:05.126Z,96.40
2019-02-27T10:05:36.640Z,94.80
2019-02-27T10:08:07.418Z,92.20
2019-02-27T10:10:36.385Z,91.40
2019-02-27T10:13:05.413Z,91.30
2019-02-27T10:15:34.619Z,91.90
2019-02-27T10:18:03.741Z,88.50
2019-02-27T10:20:36.970Z,87.00
2019-02-27T10:23:03.649Z,80.70
2019-02-27T10:25:32.793Z,73.50
2019-02-27T10:28:04.479Z,67.80
2019-02-27T10:30:32.672Z,69.80
2019-02-27T10:33:03.254Z,70.80
2019-02-27T10:35:34.598Z,64.30
2019-02-27T10:38:03.509Z,60.30
2019-02-27T10:40:32.585Z,59.50
2019-02-27T10:43:01.669Z,58.80
2019-02-27T10:45:30.815Z,57.60
2019-02-27T10:48:00.097Z,56.70
2019-02-27T10:50:29.185Z,57.20
2019-02-27T10:52:58.745Z,56.30
2019-02-27T10:55:27.800Z,56.50
2019-02-27T10:57:56.951Z,56.40
2019-02-27T11:00:29.529Z,55.80
2019-02-27T11:02:58.692Z,55.80
2019-02-27T11:05:28.658Z,55.60
2019-02-27T11:07:57.693Z,55.30
2019-02-27T11:10:26.901Z,55.10
2019-02-27T11:12:55.974Z,55.10
2019-02-27T11:15:25.302Z,55.30
2019-02-27T11:17:54.476Z,54.50
2019-02-27T11:20:24.674Z,52.00
2019-02-27T11:22:54.078Z,51.20
2019-02-27T11:25:23.701Z,50.90
2019-02-27T11:27:52.861Z,49.10
2019-02-27T11:30:24.624Z,48.50
2019-02-27T11:32:56.888Z,48.80
2019-02-27T11:35:25.250Z,48.90
2019-02-27T11:37:55.096Z,47.80
2019-02-27T11:40:24.506Z,46.90
2019-02-27T11:42:53.705Z,45.40
2019-02-27T11:45:24.695Z,44.60
2019-02-27T11:47:54.367Z,44.40
2019-02-27T11:50:23.516Z,45.10
2019-02-27T11:52:52.766Z,43.60
2019-02-27T11:55:21.945Z,41.90
2019-02-27T11:57:51.177Z,41.10
2019-02-27T12:00:28.637Z,41.60
2019-02-27T12:02:57.969Z,40.40
2019-02-27T12:05:30.813Z,41.00
2019-02-27T12:07:58.261Z,41.00
2019-02-27T12:10:28.420Z,40.00
2019-02-27T12:13:00.881Z,39.40
2019-02-27T12:15:28.251Z,38.80
2019-02-27T12:18:00.603Z,38.70
2019-02-27T12:20:28.288Z,39.30
2019-02-27T12:22:57.422Z,39.90
2019-02-27T12:25:29.126Z,39.80
2019-02-27T12:27:57.341Z,39.60
2019-02-27T12:30:27.115Z,39.20
2019-02-27T12:32:57.012Z,39.20
2019-02-27T12:35:28.234Z,39.20
2019-02-27T12:37:57.257Z,38.70
2019-02-27T12:40:26.476Z,39.20
2019-02-27T12:42:55.934Z,39.40
2019-02-27T12:45:26.642Z,39.40
2019-02-27T12:47:56.472Z,39.20
2019-02-27T12:50:29.694Z,40.20
2019-02-27T12:52:56.918Z,38.90
2019-02-27T12:55:27.974Z,39.90
2019-02-27T12:57:59.459Z,39.00
2019-02-27T13:00:29.230Z,38.80
2019-02-27T13:02:59.042Z,38.60
2019-02-27T13:05:28.734Z,38.10
2019-02-27T13:07:58.080Z,38.50
2019-02-27T13:10:27.293Z,38.00
2019-02-27T13:12:56.496Z,37.70
2019-02-27T13:15:26.054Z,37.60
2019-02-27T13:17:57.698Z,37.60
2019-02-27T13:20:26.846Z,36.40
2019-02-27T13:22:55.922Z,36.30
2019-02-27T13:25:25.193Z,36.40
2019-02-27T13:27:54.292Z,35.40
2019-02-27T13:30:23.477Z,34.20
2019-02-27T13:32:52.666Z,33.60
2019-02-27T13:35:23.145Z,33.00
2019-02-27T13:37:53.129Z,33.10
2019-02-27T13:40:22.280Z,31.40
2019-02-27T13:42:53.404Z,31.30
2019-02-27T13:45:23.889Z,30.90
2019-02-27T13:47:53.108Z,31.30
2019-02-27T13:50:24.536Z,28.70
2019-02-27T13:52:53.011Z,28.10
2019-02-27T13:55:22.301Z,28.00
2019-02-27T13:57:51.480Z,27.80
2019-02-27T14:00:25.447Z,27.60
2019-02-27T14:22:45.286Z,27.90
2019-02-27T14:27:47.212Z,26.20
2019-02-27T14:30:17.619Z,25.50
2019-02-27T14:32:47.441Z,25.60
2019-02-27T14:35:16.984Z,25.50
2019-02-27T14:37:49.662Z,25.80
2019-02-27T14:40:18.222Z,25.30
2019-02-27T14:42:47.345Z,25.20
2019-02-27T14:45:18.259Z,25.30
2019-02-27T14:47:48.007Z,25.40
2019-02-27T14:50:18.773Z,25.20
2019-02-27T14:52:49.882Z,25.60
2019-02-27T14:55:18.922Z,25.20
2019-02-27T14:57:51.171Z,24.70
2019-02-27T15:00:29.430Z,24.50
2019-02-27T15:02:58.680Z,24.80
2019-02-27T15:05:29.877Z,24.80
2019-02-27T18:48:59.078Z,25.00
2019-02-27T18:51:29.927Z,38.20
2019-02-27T18:53:58.901Z,38.00
2019-02-27T18:56:27.997Z,38.00
2019-02-27T18:58:57.100Z,38.30
2019-02-27T19:01:26.312Z,38.80
2019-02-27T19:04:00.326Z,37.90
2019-02-27T19:06:26.328Z,38.30
2019-02-27T19:08:55.376Z,37.90
2019-02-27T19:11:24.522Z,38.30
2019-02-27T19:13:53.774Z,38.00
2019-02-27T19:16:22.908Z,38.10
2019-02-27T19:18:52.015Z,37.90
2019-02-27T19:21:21.138Z,38.70
2019-02-27T19:23:52.623Z,38.00
2019-02-27T19:26:21.005Z,38.60
2019-02-27T19:28:50.111Z,38.10
2019-02-27T19:31:19.266Z,38.30
2019-02-27T19:33:48.470Z,38.30
2019-02-27T19:36:19.350Z,38.40
2019-02-27T19:38:48.421Z,38.80
2019-02-27T19:41:17.542Z,38.70
2019-02-27T19:43:46.624Z,38.90
2019-02-27T19:46:15.734Z,39.10
2019-02-27T19:48:44.833Z,39.00
2019-02-27T19:51:14.042Z,39.10
2019-02-27T19:53:43.104Z,39.20
2019-02-27T19:56:12.080Z,39.30
2019-02-27T19:58:41.280Z,39.20
2019-02-27T20:01:10.502Z,39.50
2019-02-27T20:03:39.717Z,39.40
2019-02-27T20:06:08.780Z,39.40
2019-02-27T20:08:38.166Z,39.60
2019-02-27T20:11:07.345Z,39.60
2019-02-27T20:13:36.468Z,39.90
2019-02-27T20:16:05.666Z,39.90
2019-02-27T20:18:34.915Z,40.50
2019-02-27T20:21:04.523Z,40.00
2019-02-27T20:23:33.659Z,40.10
2019-02-27T20:26:02.728Z,40.60
2019-02-27T20:28:31.974Z,40.50
2019-02-27T20:31:01.905Z,40.60
2019-02-27T20:33:34.178Z,41.30
2019-02-27T20:36:02.081Z,40.80
2019-02-27T20:38:31.845Z,41.20
2019-02-27T20:41:00.972Z,41.00
2019-02-27T20:43:30.230Z,41.30
2019-02-27T20:45:59.288Z,41.40
2019-02-27T20:48:28.390Z,41.40
2019-02-27T20:50:57.867Z,41.70
2019-02-27T20:53:27.125Z,41.90
2019-02-27T20:55:56.193Z,42.00
2019-02-27T20:58:25.358Z,42.30
2019-02-27T21:00:54.521Z,42.40
2019-02-27T21:03:26.926Z,42.60
2019-02-27T21:05:54.562Z,42.90
2019-02-27T21:08:23.804Z,43.10
2019-02-27T21:10:55.292Z,43.40
2019-02-27T21:13:23.645Z,43.80
2019-02-27T21:15:53.068Z,44.00
2019-02-27T21:18:23.610Z,44.70
2019-02-27T21:20:53.097Z,44.80
2019-02-27T21:23:22.251Z,44.70
2019-02-27T21:25:51.318Z,45.10
2019-02-27T21:28:21.370Z,46.00
2019-02-27T21:30:52.368Z,47.20
2019-02-27T21:33:21.526Z,46.60
2019-02-27T21:35:50.763Z,46.90
2019-02-27T21:38:20.002Z,47.00
2019-02-27T21:40:49.167Z,47.40
2019-02-27T21:43:18.348Z,47.70
2019-02-27T21:45:47.783Z,47.30
2019-02-27T21:48:16.967Z,48.20
2019-02-27T21:50:45.944Z,48.40
2019-02-27T21:53:15.194Z,48.50
2019-02-27T21:55:44.922Z,48.40
2019-02-27T21:58:20.350Z,48.70
2019-02-27T22:00:48.115Z,49.10
2019-02-27T22:03:16.513Z,49.70
2019-02-27T22:05:47.068Z,50.20
2019-02-27T22:08:16.248Z,50.40
2019-02-27T22:10:45.373Z,51.00
2019-02-27T22:13:14.486Z,50.80
2019-02-27T22:15:45.163Z,51.00
2019-02-27T22:18:14.135Z,54.10
2019-02-27T22:20:43.229Z,53.70
2019-02-27T22:23:12.888Z,53.40
2019-02-27T22:25:42.647Z,53.80
2019-02-27T22:28:11.749Z,54.50
2019-02-27T22:30:40.843Z,55.10
2019-02-27T22:33:09.837Z,55.70
2019-02-27T22:35:38.986Z,56.60
2019-02-27T22:38:08.064Z,56.70
2019-02-27T22:40:37.977Z,56.90
2019-02-27T22:43:08.049Z,56.60
2019-02-27T22:45:40.502Z,56.80
2019-02-27T22:48:07.933Z,57.20
2019-02-27T22:50:38.309Z,57.30
2019-02-27T22:53:07.762Z,57.20
2019-02-27T22:55:36.766Z,57.40
2019-02-27T22:58:05.959Z,57.90
2019-02-27T23:01:10.082Z,58.40
2019-02-27T23:03:59.880Z,58.80
2019-02-27T23:06:29.070Z,59.00
2019-02-27T23:08:59.731Z,59.30
2019-02-27T23:11:29.027Z,60.00
2019-02-27T23:13:58.169Z,61.10
2019-02-27T23:16:29.802Z,61.50
2019-02-27T23:18:58.094Z,62.00
2019-02-27T23:21:27.372Z,62.40
2019-02-27T23:23:56.686Z,63.30
2019-02-27T23:26:25.821Z,64.70
2019-02-27T23:28:54.802Z,66.50
2019-02-27T23:31:23.998Z,68.10
2019-02-27T23:33:53.224Z,69.80
2019-02-27T23:36:22.862Z,71.00
2019-02-27T23:38:53.884Z,72.70
2019-02-27T23:41:23.804Z,74.40
2019-02-27T23:43:53.002Z,75.70
2019-02-27T23:46:22.021Z,77.80
2019-02-27T23:48:51.097Z,79.20
2019-02-27T23:51:20.364Z,81.40
2019-02-27T23:53:50.645Z,82.70
2019-02-27T23:56:20.666Z,83.70
2019-02-27T23:58:49.743Z,85.20
